Time;durP1;ratioP1;P1;durP2;ratioP2;P2;SDS_P1;SDS_P2;PMS_P1;PMS_P2;Temp;Humidity;BMP_temperature;BMP_pressure;BME280_temperature;BME280_humidity;BME280_pressure;Samples;Min_cycle;Max_cycle;Signal;HPM_P1;HPM_P2
2022/10/23 00:00:40;;;;;;;813.97;741.77;;;11.60;99.90;;;;;;4970682;28;20459;-83
2022/10/23 00:03:06;;;;;;;814.43;741.27;;;11.60;99.90;;;;;;4971218;28;20480;-83
2022/10/23 00:05:34;;;;;;;816.40;742.70;;;11.60;99.90;;;;;;4970164;28;20471;-83
2022/10/23 00:08:00;;;;;;;813.40;738.90;;;11.50;99.90;;;;;;4970567;28;20448;-83
2022/10/23 00:10:28;;;;;;;798.03;724.13;;;11.60;99.90;;;;;;4971098;28;20487;-83
2022/10/23 00:12:55;;;;;;;798.90;724.10;;;11.60;99.90;;;;;;4971023;28;20480;-83
2022/10/23 00:15:23;;;;;;;800.30;725.10;;;11.40;99.90;;;;;;4971527;28;20466;-83
2022/10/23 00:17:50;;;;;;;791.47;715.50;;;11.50;99.90;;;;;;4969999;28;20981;-83
2022/10/23 00:20:17;;;;;;;786.67;710.07;;;11.50;99.90;;;;;;4970973;28;20466;-83
2022/10/23 00:22:44;;;;;;;781.17;704.90;;;11.60;99.90;;;;;;4969998;28;20460;-82
2022/10/23 00:25:15;;;;;;;786.63;710.10;;;11.60;99.90;;;;;;4970583;28;20458;-83
2022/10/23 00:27:42;;;;;;;799.57;722.87;;;11.60;99.90;;;;;;4970669;28;20479;-83
2022/10/23 00:30:10;;;;;;;792.53;715.93;;;11.60;99.90;;;;;;4969842;28;20491;-82
2022/10/23 00:32:38;;;;;;;776.77;700.57;;;11.60;99.90;;;;;;4969662;28;20973;-83
2022/10/23 00:35:06;;;;;;;793.07;716.00;;;11.60;99.90;;;;;;4970282;28;20459;-82
2022/10/23 00:37:33;;;;;;;783.53;706.30;;;11.60;99.90;;;;;;4970312;28;20495;-83
2022/10/23 00:40:00;;;;;;;783.70;707.37;;;11.60;99.90;;;;;;4970646;28;20454;-82
2022/10/23 00:42:26;;;;;;;787.80;709.87;;;11.60;99.90;;;;;;4970426;28;20853;-82
2022/10/23 00:45:16;;;;;;;784.10;706.60;;;11.70;99.90;;;;;;4970256;28;20483;-83
2022/10/23 00:47:44;;;;;;;793.43;715.07;;;11.60;99.90;;;;;;4970541;28;20474;-82
2022/10/23 00:50:12;;;;;;;775.90;698.80;;;11.70;99.90;;;;;;4971132;28;20451;-83
2022/10/23 00:52:43;;;;;;;771.27;695.10;;;11.70;99.90;;;;;;4970033;28;20471;-82
2022/10/23 00:55:10;;;;;;;793.13;716.03;;;11.80;99.90;;;;;;4970943;28;20452;-82
2022/10/23 00:57:40;;;;;;;791.00;715.70;;;11.90;99.90;;;;;;4970027;28;20474;-83
2022/10/23 01:00:08;;;;;;;780.10;704.83;;;11.90;99.90;;;;;;4970473;28;20466;-82
2022/10/23 01:02:35;;;;;;;783.70;708.50;;;11.90;99.90;;;;;;4970771;28;20462;-82
2022/10/23 01:05:03;;;;;;;796.30;720.40;;;11.90;99.90;;;;;;4970145;28;20494;-82
2022/10/23 01:07:36;;;;;;;797.57;721.67;;;11.90;99.90;;;;;;4970260;28;20849;-82
2022/10/23 01:10:10;;;;;;;797.30;721.80;;;11.90;99.90;;;;;;4970583;28;20524;-83
2022/10/23 01:12:46;;;;;;;797.10;722.27;;;11.90;99.90;;;;;;4970279;28;20452;-82
2022/10/23 01:15:19;;;;;;;807.40;732.20;;;11.80;99.90;;;;;;4969732;28;20452;-82
2022/10/23 01:17:51;;;;;;;808.23;733.23;;;11.70;99.90;;;;;;4970169;28;20476;-83
2022/10/23 01:20:37;;;;;;;789.90;714.50;;;11.80;99.90;;;;;;4970421;28;20448;-83
2022/10/23 01:23:43;;;;;;;794.57;719.43;;;11.70;99.90;;;;;;4970675;28;20436;-82
2022/10/23 01:26:34;;;;;;;779.17;705.00;;;11.80;99.90;;;;;;4969776;28;20475;-82
2022/10/23 01:29:08;;;;;;;785.87;712.30;;;11.80;99.90;;;;;;4970372;28;20458;-82
2022/10/23 01:31:39;;;;;;;775.10;701.60;;;11.80;99.90;;;;;;4969839;28;20451;-82
2022/10/23 01:34:09;;;;;;;783.80;710.30;;;11.80;99.90;;;;;;4970473;28;20444;-82
2022/10/23 01:36:41;;;;;;;782.27;708.33;;;11.80;99.90;;;;;;4969901;28;20476;-83
2022/10/23 01:39:10;;;;;;;787.40;714.60;;;11.90;99.90;;;;;;4970580;28;20456;-83
2022/10/23 01:41:44;;;;;;;802.00;729.33;;;11.80;99.90;;;;;;4969809;28;20466;-83
2022/10/23 01:44:16;;;;;;;795.60;723.70;;;11.80;99.90;;;;;;4969840;28;20475;-83
2022/10/23 01:46:46;;;;;;;800.87;728.37;;;11.80;99.90;;;;;;4969084;28;20830;-82
2022/10/23 01:49:14;;;;;;;794.50;722.77;;;11.70;99.90;;;;;;4968984;28;20457;-83
2022/10/23 01:51:45;;;;;;;796.77;725.23;;;11.70;99.90;;;;;;4972521;28;20455;-83
2022/10/23 01:54:15;;;;;;;798.27;725.87;;;11.70;99.90;;;;;;4973106;28;20459;-83
2022/10/23 01:56:45;;;;;;;792.20;720.07;;;11.60;99.90;;;;;;4973951;28;20478;-83
2022/10/23 01:59:17;;;;;;;787.77;715.37;;;11.70;99.90;;;;;;4973900;28;20463;-82
2022/10/23 02:01:47;;;;;;;785.67;713.47;;;11.70;99.90;;;;;;4973305;28;20460;-82
2022/10/23 02:04:17;;;;;;;784.33;712.17;;;11.70;99.90;;;;;;4973279;28;20506;-82
2022/10/23 02:06:44;;;;;;;776.80;704.70;;;11.70;99.90;;;;;;4973042;28;20476;-82
2022/10/23 02:09:11;;;;;;;774.03;701.73;;;11.70;99.90;;;;;;4973329;28;20458;-83
2022/10/23 02:11:45;;;;;;;763.27;691.27;;;11.70;99.90;;;;;;4973253;28;20455;-83
2022/10/23 02:14:20;;;;;;;774.50;702.83;;;11.80;99.90;;;;;;4972868;28;20456;-82
2022/10/23 02:16:51;;;;;;;790.37;718.83;;;11.80;99.90;;;;;;4973311;28;20547;-83
2022/10/23 02:19:24;;;;;;;781.43;710.40;;;11.80;99.90;;;;;;4973063;28;20448;-82
2022/10/23 02:21:56;;;;;;;767.87;696.80;;;11.80;99.90;;;;;;4974246;28;20466;-83
2022/10/23 02:24:30;;;;;;;770.17;699.30;;;11.80;99.90;;;;;;4973116;28;20482;-83
2022/10/23 02:27:01;;;;;;;774.30;703.33;;;11.80;99.90;;;;;;4973536;28;20472;-83
2022/10/23 02:29:33;;;;;;;775.07;704.13;;;11.80;99.90;;;;;;4973735;28;20458;-82
2022/10/23 02:32:00;;;;;;;776.53;705.33;;;11.80;99.90;;;;;;4973664;28;21016;-83
2022/10/23 02:34:27;;;;;;;768.23;697.27;;;11.90;99.90;;;;;;4972675;28;20452;-83
2022/10/23 02:36:54;;;;;;;775.70;704.60;;;11.90;99.90;;;;;;4972838;28;20487;-83
2022/10/23 02:39:22;;;;;;;767.83;696.63;;;11.90;99.90;;;;;;4973838;28;20463;-82
2022/10/23 02:41:54;;;;;;;774.00;704.03;;;12.00;99.90;;;;;;4973080;28;20454;-83
2022/10/23 02:44:32;;;;;;;767.90;698.50;;;12.00;99.90;;;;;;4972153;28;20486;-83
2022/10/23 02:47:10;;;;;;;769.50;700.40;;;12.00;99.90;;;;;;4973100;28;20997;-83
2022/10/23 02:49:44;;;;;;;767.40;698.80;;;12.10;99.90;;;;;;4972831;28;20458;-83
2022/10/23 02:52:16;;;;;;;761.13;693.40;;;12.10;99.90;;;;;;4973222;28;20456;-83
2022/10/23 02:55:05;;;;;;;775.53;708.03;;;12.10;99.90;;;;;;4973018;28;20551;-83
2022/10/23 02:57:36;;;;;;;770.97;703.67;;;12.00;99.90;;;;;;4972292;28;20476;-83
2022/10/23 03:00:09;;;;;;;771.20;704.03;;;12.10;99.90;;;;;;4972952;28;20462;-83
2022/10/23 03:02:39;;;;;;;760.23;693.40;;;12.10;99.90;;;;;;4972120;28;20486;-83
2022/10/23 03:05:09;;;;;;;765.30;698.57;;;12.10;99.90;;;;;;4972365;28;20502;-83
2022/10/23 03:07:36;;;;;;;765.47;699.27;;;12.20;99.90;;;;;;4972311;28;20534;-82
2022/10/23 03:10:03;;;;;;;762.33;696.83;;;12.10;99.90;;;;;;4971772;28;20452;-83
2022/10/23 03:12:30;;;;;;;756.13;691.57;;;12.20;99.90;;;;;;4970717;28;20456;-82
2022/10/23 03:14:56;;;;;;;764.53;700.23;;;12.20;99.90;;;;;;4972137;28;20452;-83
2022/10/23 03:17:25;;;;;;;767.97;704.40;;;12.20;99.90;;;;;;4972400;28;20476;-83
2022/10/23 03:19:52;;;;;;;772.20;709.80;;;12.30;99.90;;;;;;4972593;28;20484;-82
2022/10/23 03:22:18;;;;;;;766.83;704.90;;;12.20;99.90;;;;;;4973433;28;20463;-83
2022/10/23 03:24:45;;;;;;;767.63;706.20;;;12.30;99.90;;;;;;4971798;28;20483;-83
2022/10/23 03:27:12;;;;;;;770.43;710.27;;;12.20;99.90;;;;;;4972134;28;20469;-83
2022/10/23 03:29:39;;;;;;;771.13;711.00;;;12.20;99.90;;;;;;4971956;28;20466;-83
2022/10/23 03:32:06;;;;;;;762.77;702.03;;;12.20;99.90;;;;;;4971790;28;20467;-83
2022/10/23 03:34:34;;;;;;;778.70;718.50;;;12.10;99.90;;;;;;4972401;28;20507;-82
2022/10/23 03:37:01;;;;;;;771.87;712.13;;;12.10;99.90;;;;;;4972378;28;20483;-82
2022/10/23 03:39:28;;;;;;;762.87;703.07;;;12.10;99.90;;;;;;4973185;28;20563;-83
2022/10/23 03:41:54;;;;;;;754.73;693.57;;;12.00;99.90;;;;;;4972535;28;20824;-83
2022/10/23 03:44:21;;;;;;;743.97;681.20;;;12.00;99.90;;;;;;4971746;28;20490;-83
2022/10/23 03:46:48;;;;;;;754.60;692.20;;;12.00;99.90;;;;;;4971652;28;20476;-83
2022/10/23 03:49:15;;;;;;;746.60;685.00;;;12.00;99.90;;;;;;4972249;28;20466;-83
2022/10/23 03:51:50;;;;;;;741.47;679.67;;;12.00;99.90;;;;;;4971232;28;20456;-83
2022/10/23 03:54:18;;;;;;;749.33;687.30;;;11.90;99.90;;;;;;4970959;28;20455;-83
2022/10/23 03:56:45;;;;;;;744.07;681.87;;;11.90;99.90;;;;;;4971582;28;20480;-83
2022/10/23 03:59:12;;;;;;;744.37;682.03;;;11.90;99.90;;;;;;4970829;28;20942;-83
2022/10/23 04:01:38;;;;;;;731.70;668.03;;;11.90;99.90;;;;;;4972014;28;20520;-82
2022/10/23 04:04:05;;;;;;;732.47;668.50;;;11.90;99.90;;;;;;4970807;28;20752;-82
2022/10/23 04:06:32;;;;;;;731.60;666.90;;;11.90;99.90;;;;;;4963628;28;20480;-81
2022/10/23 04:09:00;;;;;;;717.90;652.70;;;11.90;99.90;;;;;;4965337;28;20456;-83
2022/10/23 04:11:27;;;;;;;715.53;650.07;;;12.00;99.90;;;;;;4968831;28;21631;-83
2022/10/23 04:13:53;;;;;;;712.00;647.07;;;12.00;99.90;;;;;;4969541;28;20455;-82
2022/10/23 04:16:20;;;;;;;728.10;662.60;;;12.00;99.90;;;;;;4970723;28;21050;-82
2022/10/23 04:18:47;;;;;;;707.60;643.10;;;12.10;99.90;;;;;;4969952;28;20458;-83
2022/10/23 04:21:14;;;;;;;713.10;649.07;;;12.10;99.90;;;;;;4970198;29;20448;-84
2022/10/23 04:23:41;;;;;;;739.60;673.33;;;12.20;99.90;;;;;;4968745;28;20455;-82
2022/10/23 04:26:09;;;;;;;725.27;662.90;;;12.20;99.90;;;;;;4969856;28;20486;-83
2022/10/23 04:28:36;;;;;;;730.90;669.60;;;12.20;99.90;;;;;;4970056;28;20454;-83
2022/10/23 04:31:03;;;;;;;729.00;669.10;;;12.30;99.90;;;;;;4970319;28;20448;-83
2022/10/23 04:33:29;;;;;;;734.83;676.43;;;12.30;99.90;;;;;;4972619;28;20452;-82
2022/10/23 04:35:56;;;;;;;742.17;684.60;;;12.30;99.90;;;;;;4970043;28;20479;-83
2022/10/23 04:38:23;;;;;;;738.33;682.60;;;12.40;99.90;;;;;;4970802;29;20436;-83
2022/10/23 04:40:50;;;;;;;728.67;673.90;;;12.30;99.90;;;;;;4969861;29;20462;-83
2022/10/23 04:43:18;;;;;;;734.83;680.33;;;12.30;99.90;;;;;;4969165;29;20454;-83
2022/10/23 04:45:44;;;;;;;734.63;680.03;;;12.30;99.90;;;;;;4970512;29;20488;-83
2022/10/23 04:48:11;;;;;;;736.83;681.97;;;12.30;99.90;;;;;;4969522;29;20535;-83
2022/10/23 04:50:38;;;;;;;740.77;685.97;;;12.30;99.90;;;;;;4968697;29;20458;-83
2022/10/23 04:53:04;;;;;;;740.10;685.47;;;12.20;99.90;;;;;;4970929;29;20460;-83
2022/10/23 04:55:31;;;;;;;749.87;695.07;;;12.20;99.90;;;;;;4970161;29;20466;-83
2022/10/23 04:57:58;;;;;;;746.23;690.80;;;12.20;99.90;;;;;;4970851;28;20447;-82
2022/10/23 05:00:26;;;;;;;738.07;682.27;;;12.20;99.90;;;;;;4970281;28;20456;-83
2022/10/23 05:02:53;;;;;;;734.00;677.37;;;12.20;99.90;;;;;;4970587;28;20452;-83
2022/10/23 05:05:19;;;;;;;742.13;685.40;;;12.10;99.90;;;;;;4970400;28;20486;-82
2022/10/23 05:07:46;;;;;;;744.93;687.13;;;12.10;99.90;;;;;;4971034;28;20560;-83
2022/10/23 05:10:13;;;;;;;729.20;671.03;;;12.10;99.90;;;;;;4970689;28;20867;-83
2022/10/23 05:12:40;;;;;;;740.10;680.30;;;12.10;99.90;;;;;;4970216;28;20458;-83
2022/10/23 05:15:07;;;;;;;736.83;677.67;;;12.00;99.90;;;;;;4969972;28;20478;-83
2022/10/23 05:17:39;;;;;;;744.60;684.87;;;12.00;99.90;;;;;;4970223;28;20503;-83
2022/10/23 05:20:11;;;;;;;740.90;681.80;;;12.00;99.90;;;;;;4965138;28;20456;-82
2022/10/23 05:22:40;;;;;;;733.33;673.20;;;11.90;99.90;;;;;;4970199;28;20480;-83
2022/10/23 05:25:08;;;;;;;738.73;677.67;;;11.90;99.90;;;;;;4971308;28;20482;-83
2022/10/23 05:27:35;;;;;;;725.80;665.00;;;11.90;99.90;;;;;;4974548;28;20475;-83
2022/10/23 05:30:02;;;;;;;730.73;668.83;;;11.80;99.90;;;;;;4970839;28;20456;-81
2022/10/23 05:32:31;;;;;;;724.30;662.10;;;11.80;99.90;;;;;;4971954;28;20962;-83
2022/10/23 05:35:02;;;;;;;726.20;663.70;;;11.80;99.90;;;;;;4981346;28;20452;-82
2022/10/23 05:37:29;;;;;;;730.23;667.90;;;11.80;99.90;;;;;;4980745;28;20459;-82
2022/10/23 05:39:57;;;;;;;720.50;657.70;;;11.70;99.90;;;;;;4981700;28;20455;-83
2022/10/23 05:42:23;;;;;;;718.17;654.50;;;11.70;99.90;;;;;;4981811;28;20506;-82
2022/10/23 05:44:50;;;;;;;730.03;665.80;;;11.60;99.90;;;;;;4972793;28;20494;-83
2022/10/23 05:47:17;;;;;;;724.63;659.60;;;11.70;99.90;;;;;;4973044;28;20478;-82
2022/10/23 05:49:44;;;;;;;708.70;644.40;;;11.70;99.90;;;;;;4972604;28;20458;-82
2022/10/23 05:52:12;;;;;;;713.03;648.37;;;11.70;99.90;;;;;;4974234;28;20462;-84
2022/10/23 05:54:39;;;;;;;734.77;670.57;;;11.70;99.90;;;;;;4970397;28;20458;-82
2022/10/23 05:57:06;;;;;;;726.67;661.67;;;11.70;99.90;;;;;;4972909;28;21059;-83
2022/10/23 05:59:32;;;;;;;727.13;661.43;;;11.70;99.90;;;;;;4969505;28;20455;-83
2022/10/23 06:01:59;;;;;;;723.67;657.77;;;11.60;99.90;;;;;;4972326;28;20467;-83
2022/10/23 06:04:26;;;;;;;722.53;657.00;;;11.70;99.90;;;;;;4972582;28;20452;-82
2022/10/23 06:06:53;;;;;;;739.07;673.47;;;11.70;99.90;;;;;;4972591;28;20490;-82
2022/10/23 06:09:21;;;;;;;729.67;664.00;;;11.80;99.90;;;;;;4969760;28;20455;-83
2022/10/23 06:11:47;;;;;;;715.27;651.70;;;11.80;99.90;;;;;;4970382;28;20463;-84
2022/10/23 06:14:14;;;;;;;722.00;659.77;;;12.00;99.90;;;;;;4970702;28;20459;-83
2022/10/23 06:16:41;;;;;;;738.70;677.60;;;12.00;99.90;;;;;;4970035;28;20487;-84
2022/10/23 06:19:10;;;;;;;738.03;678.20;;;12.00;99.90;;;;;;4969479;28;20465;-83
2022/10/23 06:21:38;;;;;;;740.60;680.83;;;12.00;99.90;;;;;;4968733;28;20451;-84
2022/10/23 06:24:06;;;;;;;747.53;687.83;;;11.90;99.90;;;;;;4968181;28;20456;-84
2022/10/23 06:26:34;;;;;;;741.73;682.37;;;12.00;99.90;;;;;;4968335;28;20493;-84
2022/10/23 06:29:01;;;;;;;743.70;685.47;;;12.00;99.90;;;;;;4967432;29;20461;-83
2022/10/23 06:31:28;;;;;;;744.10;685.80;;;12.00;99.90;;;;;;4966679;28;20456;-84
2022/10/23 06:33:55;;;;;;;743.00;685.80;;;11.90;99.90;;;;;;4966627;28;20452;-84
2022/10/23 06:36:22;;;;;;;745.03;687.63;;;12.00;99.90;;;;;;4969944;28;20846;-83
2022/10/23 06:38:50;;;;;;;742.70;685.10;;;12.00;99.90;;;;;;4969085;28;20456;-83
2022/10/23 06:41:19;;;;;;;736.80;679.10;;;12.10;99.90;;;;;;4969096;28;20459;-84
2022/10/23 06:43:49;;;;;;;744.80;687.80;;;12.10;99.90;;;;;;4967701;28;20455;-84
2022/10/23 06:46:17;;;;;;;742.70;686.33;;;12.10;99.90;;;;;;4968839;28;20479;-84
2022/10/23 06:48:43;;;;;;;738.50;682.70;;;12.20;99.90;;;;;;4968109;28;20478;-84
2022/10/23 06:51:13;;;;;;;730.83;676.07;;;12.30;99.90;;;;;;4967385;28;20463;-84
2022/10/23 06:53:40;;;;;;;726.07;673.23;;;12.40;99.90;;;;;;4969857;28;20515;-84
2022/10/23 06:56:08;;;;;;;724.83;674.63;;;12.40;99.90;;;;;;4969600;28;20487;-84
2022/10/23 06:58:37;;;;;;;715.40;667.63;;;12.50;99.90;;;;;;4969057;28;20456;-84
2022/10/23 07:01:08;;;;;;;689.60;644.80;;;12.60;99.90;;;;;;4971891;28;20455;-83
2022/10/23 07:03:35;;;;;;;675.37;633.80;;;12.60;99.90;;;;;;4971918;28;20462;-84
2022/10/23 07:06:04;;;;;;;660.07;621.13;;;12.60;99.90;;;;;;4971740;28;20726;-83
2022/10/23 07:08:31;;;;;;;648.00;610.50;;;12.70;99.90;;;;;;4971454;28;20459;-83
2022/10/23 07:11:02;;;;;;;625.47;590.43;;;12.90;99.90;;;;;;4971946;28;20456;-83
2022/10/23 07:13:28;;;;;;;611.73;579.10;;;12.80;99.90;;;;;;4970949;28;20466;-83
2022/10/23 07:15:55;;;;;;;596.40;565.10;;;12.80;99.90;;;;;;4967873;28;20472;-83
2022/10/23 07:18:23;;;;;;;544.77;518.57;;;12.90;99.90;;;;;;4959910;29;20478;-84
2022/10/23 07:20:57;;;;;;;536.97;511.47;;;12.90;99.90;;;;;;4961978;29;20460;-82
2022/10/23 07:23:24;;;;;;;515.53;491.67;;;13.00;99.90;;;;;;4960764;28;20827;-83
2022/10/23 07:25:50;;;;;;;493.10;471.33;;;13.10;99.90;;;;;;4960399;28;20479;-83
2022/10/23 07:28:17;;;;;;;472.53;452.13;;;13.10;99.90;;;;;;4960096;28;20452;-83
2022/10/23 07:30:44;;;;;;;467.90;447.60;;;13.10;99.90;;;;;;4960396;28;20456;-82
2022/10/23 07:33:12;;;;;;;454.50;435.10;;;13.20;99.90;;;;;;4960400;28;20456;-81
2022/10/23 07:35:41;;;;;;;415.67;398.57;;;13.30;99.90;;;;;;4959763;28;20452;-82
2022/10/23 07:38:08;;;;;;;389.97;374.17;;;13.40;99.90;;;;;;4957153;28;20463;-82
2022/10/23 07:40:35;;;;;;;335.40;321.83;;;13.50;99.90;;;;;;4959214;28;20464;-82
2022/10/23 07:43:02;;;;;;;300.27;287.43;;;13.50;99.90;;;;;;4959187;28;20836;-82
2022/10/23 07:45:28;;;;;;;289.10;277.23;;;13.60;99.90;;;;;;4959456;29;20483;-82
2022/10/23 07:47:55;;;;;;;215.60;206.60;;;13.70;99.90;;;;;;4958433;28;20451;-82
2022/10/23 07:50:22;;;;;;;212.37;204.07;;;13.80;99.90;;;;;;4958721;29;20696;-82
2022/10/23 07:52:50;;;;;;;186.67;179.27;;;13.90;99.90;;;;;;4953723;29;20453;-82
2022/10/23 07:55:17;;;;;;;159.93;153.43;;;13.90;99.90;;;;;;4956105;29;20867;-82
2022/10/23 07:57:44;;;;;;;144.17;138.47;;;14.00;99.90;;;;;;4961572;28;20857;-82
2022/10/23 08:00:12;;;;;;;137.70;132.20;;;14.10;99.90;;;;;;4958874;28;20452;-82
2022/10/23 08:02:38;;;;;;;114.63;109.93;;;14.20;99.90;;;;;;4959883;28;20455;-82
2022/10/23 08:05:06;;;;;;;111.33;107.17;;;14.30;99.90;;;;;;4959420;28;20459;-82
2022/10/23 08:07:33;;;;;;;92.70;89.40;;;14.40;99.90;;;;;;4960023;28;20471;-82
2022/10/23 08:10:01;;;;;;;55.63;53.33;;;14.60;99.90;;;;;;4960464;28;20454;-84
2022/10/23 08:12:27;;;;;;;60.70;57.90;;;14.60;99.90;;;;;;4961140;28;20464;-85
2022/10/23 08:14:54;;;;;;;36.63;34.93;;;14.80;99.90;;;;;;4960395;28;20454;-82
2022/10/23 08:17:21;;;;;;;32.63;30.50;;;14.90;99.90;;;;;;4959606;28;20472;-83
2022/10/23 08:19:48;;;;;;;17.27;16.00;;;15.10;99.90;;;;;;4959330;28;20461;-84
2022/10/23 08:22:15;;;;;;;15.17;13.83;;;15.10;99.90;;;;;;4959313;28;20456;-82
2022/10/23 08:24:42;;;;;;;14.47;13.30;;;15.30;99.90;;;;;;4959058;28;20463;-82
2022/10/23 08:27:10;;;;;;;15.90;12.53;;;15.50;99.90;;;;;;4959807;28;20487;-86
2022/10/23 08:29:37;;;;;;;10.10;6.53;;;15.70;99.90;;;;;;4962757;28;20454;-84
2022/10/23 08:32:04;;;;;;;12.90;5.70;;;15.80;99.90;;;;;;4959147;29;20463;-84
2022/10/23 08:34:31;;;;;;;6.30;3.57;;;16.00;99.90;;;;;;4959721;28;20802;-85
2022/10/23 08:36:57;;;;;;;7.30;3.73;;;15.90;99.90;;;;;;4960368;28;21003;-86
2022/10/23 08:39:24;;;;;;;5.80;3.30;;;16.10;99.90;;;;;;4961665;28;20459;-85
2022/10/23 08:41:53;;;;;;;13.67;3.80;;;16.20;99.90;;;;;;4960899;28;20455;-83
2022/10/23 08:44:27;;;;;;;7.63;3.93;;;16.30;99.90;;;;;;4959878;28;21025;-82
2022/10/23 08:47:01;;;;;;;5.93;3.03;;;16.50;99.90;;;;;;4960479;28;20513;-83
2022/10/23 08:49:39;;;;;;;6.60;2.43;;;16.50;99.90;;;;;;4959648;28;20456;-82
2022/10/23 08:52:15;;;;;;;8.93;3.00;;;16.40;99.90;;;;;;4959901;28;20827;-82
2022/10/23 08:54:52;;;;;;;6.37;3.10;;;16.60;99.90;;;;;;4959233;28;20463;-82
2022/10/23 08:57:23;;;;;;;9.00;2.40;;;16.80;99.90;;;;;;4959249;28;20478;-81
2022/10/23 08:59:59;;;;;;;11.60;4.53;;;16.80;99.90;;;;;;4959117;28;20456;-82
2022/10/23 09:02:30;;;;;;;7.80;2.00;;;17.00;99.90;;;;;;4959310;28;20459;-81
2022/10/23 09:04:58;;;;;;;13.20;2.37;;;17.10;99.90;;;;;;4958597;28;20457;-82
2022/10/23 09:07:39;;;;;;;9.37;2.37;;;17.30;99.90;;;;;;4958150;28;20989;-82
2022/10/23 09:10:23;;;;;;;7.90;2.13;;;17.60;99.90;;;;;;4958162;28;20967;-82
2022/10/23 09:12:50;;;;;;;7.53;3.77;;;17.80;99.90;;;;;;4950937;29;20458;-82
2022/10/23 09:15:26;;;;;;;6.53;2.80;;;17.80;99.90;;;;;;4958378;28;20820;-82
2022/10/23 09:17:59;;;;;;;7.20;2.50;;;18.00;99.90;;;;;;4956523;28;20489;-82
2022/10/23 09:20:31;;;;;;;6.80;2.40;;;18.00;99.60;;;;;;4957028;28;21006;-81
2022/10/23 09:23:00;;;;;;;6.70;2.30;;;18.30;99.90;;;;;;4958241;28;20834;-82
2022/10/23 09:25:30;;;;;;;5.50;2.30;;;18.70;99.60;;;;;;4958828;28;20457;-82
2022/10/23 09:28:01;;;;;;;4.40;2.00;;;19.00;99.10;;;;;;4957334;28;20468;-81
2022/10/23 09:30:33;;;;;;;9.57;2.37;;;19.10;97.80;;;;;;4957837;28;20456;-81
2022/10/23 09:33:14;;;;;;;8.37;2.70;;;19.40;97.00;;;;;;4958007;28;20458;-84
2022/10/23 09:35:52;;;;;;;4.93;1.63;;;19.60;95.60;;;;;;4959221;28;20474;-82
2022/10/23 09:38:28;;;;;;;9.13;2.30;;;19.70;95.00;;;;;;4939156;29;20456;-81
2022/10/23 09:40:55;;;;;;;7.40;2.17;;;19.70;95.00;;;;;;4952448;29;20457;-82
2022/10/23 09:43:24;;;;;;;5.03;1.97;;;20.00;95.10;;;;;;4957455;28;20462;-82
2022/10/23 09:45:58;;;;;;;10.47;2.27;;;20.00;94.20;;;;;;4957601;28;20480;-82
2022/10/23 09:48:25;;;;;;;8.03;2.80;;;19.80;94.30;;;;;;4958175;28;20460;-82
2022/10/23 09:50:55;;;;;;;11.83;2.23;;;19.60;95.30;;;;;;4958104;29;20462;-82
2022/10/23 09:53:32;;;;;;;6.33;2.13;;;19.40;94.60;;;;;;4959177;28;20467;-82
2022/10/23 09:56:02;;;;;;;6.60;2.13;;;19.30;95.20;;;;;;4958505;28;20853;-82
2022/10/23 09:58:35;;;;;;;7.67;2.50;;;18.90;94.80;;;;;;4958921;28;20462;-82
2022/10/23 10:01:04;;;;;;;6.70;2.10;;;18.80;96.10;;;;;;4957601;28;20818;-82
2022/10/23 10:03:31;;;;;;;4.87;2.17;;;18.50;96.30;;;;;;4957596;28;20465;-82
2022/10/23 10:06:00;;;;;;;7.87;2.10;;;18.40;96.00;;;;;;4958118;28;20479;-83
2022/10/23 10:08:34;;;;;;;13.27;3.30;;;18.40;96.60;;;;;;4958812;28;20463;-82
2022/10/23 10:11:04;;;;;;;6.73;1.93;;;18.40;96.90;;;;;;4959338;28;20460;-82
2022/10/23 10:14:00;;;;;;;6.33;2.13;;;18.40;96.30;;;;;;4961179;28;20496;-82
2022/10/23 10:16:37;;;;;;;5.27;2.27;;;18.40;97.00;;;;;;4961230;28;20479;-82
2022/10/23 10:19:16;;;;;;;8.50;2.10;;;18.30;97.10;;;;;;4961367;28;20461;-83
2022/10/23 10:21:48;;;;;;;9.23;2.40;;;18.40;97.00;;;;;;4960533;29;20452;-83
2022/10/23 10:24:21;;;;;;;6.63;2.10;;;18.30;97.00;;;;;;4961550;28;20832;-83
2022/10/23 10:26:58;;;;;;;8.53;2.00;;;18.30;97.20;;;;;;4962205;29;20483;-83
2022/10/23 10:29:42;;;;;;;6.00;2.83;;;18.50;96.60;;;;;;4961956;28;20463;-83
2022/10/23 10:32:24;;;;;;;4.80;1.80;;;18.50;96.30;;;;;;4961071;28;20457;-82
2022/10/23 10:34:56;;;;;;;10.03;2.60;;;18.50;96.10;;;;;;4960803;28;20453;-82
2022/10/23 10:37:34;;;;;;;6.97;2.17;;;18.40;96.50;;;;;;4960787;28;20482;-82
2022/10/23 10:40:11;;;;;;;6.60;2.10;;;18.30;97.10;;;;;;4960058;28;20466;-83
2022/10/23 10:42:57;;;;;;;8.13;1.90;;;18.40;97.30;;;;;;4957527;29;20460;-83
2022/10/23 10:45:30;;;;;;;7.80;2.50;;;18.20;97.40;;;;;;4958269;29;21032;-83
2022/10/23 10:48:13;;;;;;;5.77;2.27;;;18.20;97.50;;;;;;4957935;29;20495;-84
2022/10/23 10:50:45;;;;;;;8.87;2.77;;;18.10;97.30;;;;;;4961967;28;20465;-82
2022/10/23 10:53:21;;;;;;;7.70;2.30;;;17.90;98.10;;;;;;4960587;28;20461;-82
2022/10/23 10:55:51;;;;;;;7.27;1.90;;;17.80;98.10;;;;;;4964035;28;20481;-82
2022/10/23 10:58:23;;;;;;;5.70;2.17;;;17.90;97.80;;;;;;4963958;28;20850;-83
2022/10/23 11:00:54;;;;;;;8.30;2.00;;;17.80;97.50;;;;;;4964484;28;20464;-82
2022/10/23 11:03:33;;;;;;;6.53;2.50;;;17.80;97.80;;;;;;4963402;28;20453;-82
2022/10/23 11:06:02;;;;;;;6.00;2.30;;;17.90;97.80;;;;;;4959322;29;20860;-83
2022/10/23 11:08:35;;;;;;;14.10;2.20;;;17.90;97.60;;;;;;4961271;28;20458;-82
2022/10/23 11:11:07;;;;;;;5.83;2.00;;;17.90;98.50;;;;;;4959490;29;20544;-82
2022/10/23 11:13:36;;;;;;;5.40;2.90;;;17.90;99.00;;;;;;4960520;29;20458;-82
2022/10/23 11:16:10;;;;;;;7.40;1.67;;;17.80;98.70;;;;;;4961483;28;20496;-82
2022/10/23 11:18:41;;;;;;;4.73;1.57;;;17.80;98.30;;;;;;4959961;28;20455;-82
2022/10/23 11:21:29;;;;;;;11.93;2.03;;;17.60;97.50;;;;;;4960613;28;20455;-82
2022/10/23 11:24:25;;;;;;;5.70;1.93;;;17.60;97.60;;;;;;4961784;28;20449;-82
2022/10/23 11:27:05;;;;;;;3.83;1.67;;;17.60;97.60;;;;;;4961768;28;20492;-82
2022/10/23 11:29:52;;;;;;;6.30;1.77;;;17.60;97.50;;;;;;4962703;28;20947;-82
2022/10/23 11:32:36;;;;;;;5.33;1.70;;;17.60;97.90;;;;;;4960033;28;20863;-82
2022/10/23 11:35:21;;;;;;;5.10;2.20;;;17.60;97.60;;;;;;4941087;29;20985;-82
2022/10/23 11:37:58;;;;;;;8.27;1.63;;;17.60;98.00;;;;;;4946742;29;20481;-82
2022/10/23 11:40:25;;;;;;;5.33;2.13;;;17.80;97.60;;;;;;4960425;28;20458;-83
2022/10/23 11:42:53;;;;;;;5.30;1.73;;;18.30;97.30;;;;;;4960837;28;20454;-83
2022/10/23 11:45:34;;;;;;;4.90;1.77;;;18.90;96.20;;;;;;4958955;28;20456;-83
2022/10/23 11:48:03;;;;;;;3.90;1.40;;;19.50;95.10;;;;;;4959094;28;20477;-84
2022/10/23 11:50:49;;;;;;;4.57;1.80;;;20.20;94.00;;;;;;4959570;28;20783;-84
2022/10/23 11:53:25;;;;;;;4.90;1.73;;;20.60;92.60;;;;;;4959360;28;20451;-83
2022/10/23 11:56:02;;;;;;;7.20;2.10;;;20.80;92.00;;;;;;4959470;29;20479;-84
2022/10/23 11:58:42;;;;;;;6.93;2.23;;;20.90;92.00;;;;;;4940301;29;20868;-84
2022/10/23 12:01:24;;;;;;;7.83;2.30;;;21.30;90.80;;;;;;4942856;29;20461;-84
2022/10/23 12:03:55;;;;;;;5.63;2.00;;;21.20;90.30;;;;;;4940623;29;20462;-84
2022/10/23 12:06:27;;;;;;;4.77;1.80;;;21.10;91.00;;;;;;4944885;29;20479;-84
2022/10/23 12:08:58;;;;;;;7.33;1.60;;;20.90;90.30;;;;;;4960981;28;20462;-84
2022/10/23 12:11:41;;;;;;;6.37;2.00;;;21.00;90.60;;;;;;4961131;28;20461;-84
2022/10/23 12:14:27;;;;;;;7.10;1.73;;;20.80;90.90;;;;;;4960005;28;20490;-84
2022/10/23 12:16:54;;;;;;;7.40;1.70;;;20.70;90.90;;;;;;4960598;28;20483;-85
2022/10/23 12:19:22;;;;;;;4.70;1.60;;;20.50;91.10;;;;;;4960439;28;20466;-84
2022/10/23 12:22:01;;;;;;;4.90;2.07;;;20.40;91.80;;;;;;4960776;28;20454;-85
2022/10/23 12:24:43;;;;;;;5.77;2.00;;;20.40;91.80;;;;;;4959655;28;20444;-84
2022/10/23 12:27:19;;;;;;;5.63;2.07;;;20.50;91.90;;;;;;4960606;28;20478;-84
2022/10/23 12:30:19;;;;;;;6.40;1.83;;;20.60;91.90;;;;;;4959198;29;20452;-84
2022/10/23 12:33:11;;;;;;;8.17;2.90;;;20.50;91.30;;;;;;4960768;28;20462;-84
2022/10/23 12:36:08;;;;;;;8.00;2.40;;;20.40;91.40;;;;;;4960098;28;20458;-85
2022/10/23 12:38:44;;;;;;;4.90;1.67;;;20.40;92.30;;;;;;5009536;23;20500;-83